createdAt,value
2022-09-12T03:18:07.458Z,7.93
2022-09-12T03:20:46.797Z,4.57
2022-09-12T03:23:23.982Z,6.85
2022-09-12T03:25:57.233Z,8.93
2022-09-12T03:28:25.412Z,7.30
2022-09-12T03:30:55.973Z,7.30
2022-09-12T03:33:26.683Z,16.35
2022-09-12T03:35:56.026Z,13.30
2022-09-12T03:38:25.047Z,14.23
2022-09-12T03:40:55.028Z,13.48
2022-09-12T03:43:23.332Z,7.75
2022-09-12T03:45:53.477Z,6.35
2022-09-12T03:48:22.458Z,6.43
2022-09-12T03:50:51.892Z,8.25
2022-09-12T03:53:19.988Z,7.72
2022-09-12T03:55:48.188Z,7.72
2022-09-12T03:58:16.363Z,6.15
2022-09-12T04:00:44.405Z,8.15
2022-09-12T04:03:12.493Z,9.05
2022-09-12T04:05:40.624Z,5.93
2022-09-12T04:08:10.049Z,6.55
2022-09-12T04:10:38.159Z,6.10
2022-09-12T04:13:06.419Z,7.90
2022-09-12T04:15:34.695Z,9.00
2022-09-12T04:18:05.996Z,8.40
2022-09-12T04:20:34.543Z,8.77
2022-09-12T04:23:02.798Z,8.50
2022-09-12T04:25:32.606Z,7.57
2022-09-12T04:28:00.768Z,8.18
2022-09-12T04:30:29.030Z,6.05
2022-09-12T04:32:57.324Z,7.25
2022-09-12T04:35:25.493Z,10.63
2022-09-12T04:37:53.858Z,9.70
2022-09-12T04:40:21.978Z,8.57
2022-09-12T04:42:51.688Z,11.20
2022-09-12T04:45:20.245Z,8.77
2022-09-12T04:47:48.525Z,9.15
2022-09-12T04:50:17.090Z,8.65
2022-09-12T04:52:45.263Z,9.23
2022-09-12T04:55:13.485Z,10.10
2022-09-12T04:57:41.733Z,9.23
2022-09-12T05:00:14.712Z,9.88
2022-09-12T05:02:43.000Z,11.10
2022-09-12T05:05:11.780Z,12.68
2022-09-12T05:07:40.284Z,12.52
2022-09-12T05:10:09.696Z,13.52
2022-09-12T05:12:37.900Z,11.40
2022-09-12T05:15:07.077Z,12.68
2022-09-12T05:17:36.596Z,11.30
2022-09-12T05:20:05.689Z,15.32
2022-09-12T05:22:33.882Z,10.73
2022-09-12T05:25:02.028Z,12.00
2022-09-12T05:27:30.160Z,11.50
2022-09-12T05:29:58.287Z,10.98
2022-09-12T05:32:26.450Z,15.73
2022-09-12T05:34:56.060Z,9.93
2022-09-12T05:37:24.521Z,11.32
2022-09-12T05:39:53.030Z,16.02
2022-09-12T05:42:21.386Z,13.13
2022-09-12T05:44:49.628Z,13.55
2022-09-12T05:47:20.994Z,13.45
2022-09-12T05:49:49.602Z,14.25
2022-09-12T05:52:20.446Z,16.75
2022-09-12T05:54:50.919Z,12.88
2022-09-12T05:57:21.540Z,12.85
2022-09-12T05:59:50.846Z,12.45
2022-09-12T06:02:19.315Z,13.93
2022-09-12T06:04:47.528Z,13.40
2022-09-12T06:07:15.909Z,12.82
2022-09-12T06:09:45.506Z,13.60
2022-09-12T06:12:13.829Z,16.67
2022-09-12T06:14:42.065Z,14.05
2022-09-12T06:17:10.525Z,18.50
2022-09-12T06:19:39.282Z,14.73
2022-09-12T06:22:07.440Z,13.50
2022-09-12T06:24:35.535Z,12.85
2022-09-12T06:27:05.692Z,12.50
2022-09-12T06:29:33.891Z,12.18
2022-09-12T06:32:02.492Z,14.43
2022-09-12T06:34:34.219Z,11.93
2022-09-12T06:37:04.076Z,13.45
2022-09-12T06:39:32.681Z,9.73
2022-09-12T06:42:01.022Z,12.60
2022-09-12T06:44:37.490Z,14.10
2022-09-12T06:47:05.701Z,12.40
2022-09-12T06:49:35.554Z,11.63
2022-09-12T06:52:03.945Z,11.38
2022-09-12T06:54:32.275Z,11.18
2022-09-12T06:57:00.678Z,10.32
2022-09-12T06:59:28.950Z,14.63
2022-09-12T07:01:58.716Z,11.80
2022-09-12T07:04:27.844Z,11.25
2022-09-12T07:06:56.319Z,11.93
2022-09-12T07:09:24.590Z,13.55
2022-09-12T07:11:52.825Z,9.55
2022-09-12T07:14:21.080Z,9.68
2022-09-12T07:16:49.331Z,11.07
2022-09-12T07:19:20.257Z,12.70
2022-09-12T07:21:48.629Z,9.73
2022-09-12T07:24:16.989Z,12.63
2022-09-12T07:26:45.222Z,10.75
2022-09-12T07:29:36.888Z,10.18
2022-09-12T07:32:06.126Z,8.88
2022-09-12T07:34:36.374Z,9.13
2022-09-12T07:37:04.787Z,9.95
2022-09-12T07:39:33.669Z,10.27
2022-09-12T07:42:02.009Z,11.73
2022-09-12T07:44:30.353Z,12.10
2022-09-12T07:46:58.625Z,9.82
2022-09-12T07:49:26.846Z,12.77
2022-09-12T07:51:56.493Z,10.73
2022-09-12T07:54:24.824Z,11.50
2022-09-12T07:56:52.952Z,11.43
2022-09-12T07:59:41.510Z,12.10
2022-09-12T08:02:17.461Z,9.02
2022-09-12T08:04:47.128Z,8.90
2022-09-12T08:07:18.495Z,15.95
2022-09-12T08:09:47.776Z,12.73
2022-09-12T08:12:16.702Z,11.95
2022-09-12T08:14:45.201Z,12.13
2022-09-12T08:17:14.381Z,7.80
2022-09-12T08:19:42.674Z,7.60
2022-09-12T08:22:11.282Z,12.48
2022-09-12T08:24:41.109Z,10.80
2022-09-12T08:27:09.593Z,9.57
2022-09-12T08:29:37.781Z,10.07
2022-09-12T08:32:06.106Z,12.48
2022-09-12T08:34:34.331Z,13.35
2022-09-12T08:37:02.616Z,8.75
2022-09-12T08:39:30.784Z,7.85
2022-09-12T08:42:03.500Z,10.13
2022-09-12T08:44:58.359Z,10.75
2022-09-12T08:47:30.064Z,7.30
2022-09-12T08:50:05.560Z,9.25
2022-09-12T08:52:40.258Z,9.07
2022-09-12T08:55:24.319Z,7.80
2022-09-12T08:57:54.694Z,7.82
2022-09-12T09:00:23.452Z,6.38
2022-09-12T09:03:14.316Z,9.45
2022-09-12T09:05:49.953Z,6.63
2022-09-12T09:08:42.000Z,9.93
2022-09-12T09:11:35.524Z,9.88
2022-09-12T09:14:39.116Z,8.35
2022-09-12T09:17:12.121Z,5.40
2022-09-12T09:19:48.791Z,6.85
2022-09-12T09:22:29.072Z,8.50
2022-09-12T09:25:03.590Z,8.15
2022-09-12T09:27:41.008Z,6.45
2022-09-12T09:30:16.670Z,7.78
2022-09-12T09:32:48.756Z,6.35
2022-09-12T09:35:20.077Z,7.68
2022-09-12T09:38:09.812Z,6.90
2022-09-12T09:40:47.666Z,5.95
2022-09-12T09:43:23.011Z,7.25
2022-09-12T09:45:54.077Z,8.45
2022-09-12T09:48:26.512Z,11.10
2022-09-12T09:50:54.855Z,8.13
2022-09-12T09:53:33.105Z,7.70
2022-09-12T09:56:04.811Z,6.03
2022-09-12T09:58:34.406Z,7.88
2022-09-12T10:01:07.290Z,8.25
2022-09-12T10:03:39.083Z,9.32
2022-09-12T10:06:26.097Z,6.18
2022-09-12T10:09:09.039Z,7.50
2022-09-12T10:11:43.673Z,6.38
2022-09-12T10:14:35.098Z,5.63
2022-09-12T10:17:23.594Z,8.07
2022-09-12T10:20:10.539Z,8.02
2022-09-12T10:22:41.828Z,6.80
2022-09-12T10:25:14.278Z,6.90
2022-09-12T10:27:43.430Z,9.07
2022-09-12T10:30:19.495Z,12.27
2022-09-12T10:32:51.765Z,7.13
2022-09-12T10:35:22.678Z,8.25
2022-09-12T10:37:56.860Z,5.45
2022-09-12T10:40:27.599Z,7.45
2022-09-12T10:42:57.726Z,6.88
2022-09-12T10:45:30.044Z,4.88
2022-09-12T10:48:05.444Z,10.73
2022-09-12T10:50:40.952Z,8.20
2022-09-12T10:53:19.818Z,7.13
2022-09-12T10:56:08.945Z,8.93
2022-09-12T10:58:46.871Z,7.03
2022-09-12T11:01:22.757Z,5.00
2022-09-12T11:04:19.658Z,8.25
2022-09-12T11:07:07.773Z,9.27
2022-09-12T11:09:43.130Z,5.60
2022-09-12T11:12:21.546Z,7.82
2022-09-12T11:15:03.102Z,7.68
2022-09-12T11:17:42.751Z,5.45
2022-09-12T11:20:42.305Z,3.85
2022-09-12T11:23:38.644Z,6.35
2022-09-12T11:26:15.281Z,7.93
2022-09-12T11:28:51.660Z,8.70
2022-09-12T11:31:43.796Z,5.25
2022-09-12T11:34:18.419Z,8.18
2022-09-12T11:37:08.578Z,12.10
2022-09-12T11:39:41.194Z,5.47
2022-09-12T11:42:19.812Z,5.10
2022-09-12T11:44:52.552Z,5.60
2022-09-12T11:47:21.046Z,6.32
2022-09-12T11:49:52.332Z,3.15
2022-09-12T11:52:30.733Z,6.07
2022-09-12T11:55:03.876Z,5.28
2022-09-12T11:57:38.581Z,4.13
2022-09-12T12:00:15.977Z,9.52
2022-09-12T12:02:57.250Z,5.53
2022-09-12T12:05:29.945Z,5.35
2022-09-12T12:08:02.260Z,9.80
2022-09-12T12:10:36.337Z,5.20
2022-09-12T12:13:13.283Z,4.65
2022-09-12T12:15:48.336Z,7.72
2022-09-12T12:18:20.255Z,5.80
2022-09-12T12:20:48.880Z,5.95
2022-09-12T12:23:27.347Z,4.20
2022-09-12T12:25:56.928Z,5.15
2022-09-12T12:29:01.734Z,5.72
2022-09-12T12:31:29.877Z,4.82
2022-09-12T12:34:24.144Z,4.18
2022-09-12T12:36:52.625Z,6.25
2022-09-12T12:40:01.207Z,7.07
2022-09-12T12:43:31.555Z,6.00
2022-09-12T12:46:12.522Z,5.38
2022-09-12T12:49:02.485Z,6.38
2022-09-12T12:51:38.233Z,5.10
2022-09-12T12:54:29.287Z,4.60
2022-09-12T12:57:19.955Z,4.57
2022-09-12T12:59:52.952Z,6.15
2022-09-12T13:02:25.983Z,8.15
2022-09-12T13:04:55.454Z,4.63
2022-09-12T13:07:33.227Z,7.38
2022-09-12T13:10:02.388Z,4.70
2022-09-12T13:12:34.009Z,5.57
2022-09-12T13:15:08.197Z,7.50
2022-09-12T13:17:40.682Z,6.75
2022-09-12T13:20:28.239Z,5.80
2022-09-12T13:22:56.939Z,4.90
2022-09-12T13:25:30.784Z,5.60
2022-09-12T13:28:05.290Z,6.70
2022-09-12T13:30:36.575Z,11.98
2022-09-12T13:33:20.590Z,18.40
2022-09-12T13:36:10.076Z,7.70
2022-09-12T13:38:48.173Z,10.45
2022-09-12T13:41:30.987Z,4.10
2022-09-12T13:43:59.578Z,3.70
2022-09-12T13:46:32.680Z,3.67
2022-09-12T13:49:07.163Z,4.10
2022-09-12T13:51:35.303Z,3.88
2022-09-12T13:54:05.645Z,6.10
2022-09-12T13:56:34.003Z,5.05
2022-09-12T13:59:04.118Z,7.20
2022-09-12T14:01:42.159Z,36.42
2022-09-12T14:04:35.884Z,6.88
2022-09-12T14:07:11.965Z,4.38
2022-09-12T14:09:42.478Z,8.13
2022-09-12T14:12:25.977Z,8.73
2022-09-12T14:14:54.562Z,4.35
2022-09-12T14:17:33.152Z,3.95
2022-09-12T14:20:04.026Z,5.28
2022-09-12T14:22:34.227Z,3.95
2022-09-12T14:25:02.778Z,3.92
2022-09-12T14:27:38.737Z,4.97
2022-09-12T14:30:09.497Z,3.47
2022-09-12T14:32:38.933Z,3.55
2022-09-12T14:35:18.134Z,4.32
2022-09-12T14:37:49.351Z,4.75
2022-09-12T14:40:19.641Z,4.97
2022-09-12T14:42:50.174Z,4.93
2022-09-12T14:45:24.449Z,5.53
2022-09-12T14:47:54.929Z,4.03
2022-09-12T14:50:26.319Z,4.80
2022-09-12T14:53:04.995Z,4.20
2022-09-12T14:55:35.060Z,5.50
2022-09-12T14:58:16.151Z,6.72
2022-09-12T15:01:22.900Z,6.97
2022-09-12T15:03:54.624Z,3.80
2022-09-12T15:06:26.052Z,4.88
2022-09-12T15:08:56.581Z,7.05
2022-09-12T15:11:24.775Z,4.82
2022-09-12T15:13:53.208Z,4.13
2022-09-12T15:16:22.254Z,6.53
2022-09-12T15:18:50.376Z,6.50
2022-09-12T15:21:21.299Z,6.75
2022-09-12T15:23:50.478Z,6.85
2022-09-12T15:26:20.548Z,5.63
2022-09-12T15:28:49.332Z,4.97
2022-09-12T15:31:24.721Z,7.05
2022-09-12T15:33:53.235Z,8.90
2022-09-12T15:36:24.901Z,5.43
2022-09-12T15:38:53.886Z,4.45
2022-09-12T15:41:24.019Z,5.13
2022-09-12T15:43:52.585Z,10.05
2022-09-12T15:46:20.965Z,5.85
2022-09-12T15:48:49.109Z,7.60
2022-09-12T15:51:19.125Z,6.95
2022-09-12T15:53:50.429Z,7.13
2022-09-12T15:56:20.047Z,7.30
2022-09-12T15:58:59.315Z,5.47
2022-09-12T16:01:28.790Z,8.25
2022-09-12T16:03:57.424Z,18.63
2022-09-12T16:06:25.548Z,10.57
2022-09-12T16:08:55.253Z,14.02
2022-09-12T16:11:24.952Z,15.05
2022-09-12T16:13:53.919Z,17.77
2022-09-12T16:16:22.197Z,12.10
2022-09-12T16:18:50.506Z,10.10
2022-09-12T16:21:18.689Z,7.95
2022-09-12T16:23:47.353Z,13.48
2022-09-12T16:26:17.625Z,7.38
2022-09-12T16:28:46.110Z,7.65
2022-09-12T16:31:16.042Z,8.52
2022-09-12T16:33:44.216Z,12.82
2022-09-12T16:36:14.341Z,9.23
2022-09-12T16:38:43.312Z,9.30
2022-09-12T16:41:12.399Z,7.28
2022-09-12T16:43:43.142Z,8.35
2022-09-12T16:46:13.812Z,11.77
2022-09-12T16:48:49.303Z,10.90
2022-09-12T16:51:21.582Z,11.02
2022-09-12T16:53:50.570Z,11.77
2022-09-12T16:56:19.161Z,9.02
2022-09-12T16:58:49.180Z,21.30
2022-09-12T17:01:19.414Z,18.88
2022-09-12T17:03:47.868Z,15.15
2022-09-12T17:06:18.842Z,14.50
2022-09-12T17:08:49.022Z,13.88
2022-09-12T17:11:19.726Z,14.68
2022-09-12T17:14:04.356Z,19.02
2022-09-12T17:16:34.768Z,10.25
2022-09-12T17:19:02.875Z,14.38
2022-09-12T17:21:31.069Z,13.77
2022-09-12T17:23:59.758Z,9.80
2022-09-12T17:26:28.520Z,12.55
2022-09-12T17:28:58.335Z,10.52
2022-09-12T17:31:26.905Z,10.68
2022-09-12T17:33:58.903Z,10.32
2022-09-12T17:36:28.415Z,11.00
2022-09-12T17:38:56.595Z,11.70
2022-09-12T17:41:26.945Z,8.60
2022-09-12T17:43:58.021Z,11.18
2022-09-12T17:46:28.152Z,9.18
2022-09-12T17:48:58.844Z,10.35
2022-09-12T17:51:31.178Z,8.95
2022-09-12T17:54:01.280Z,11.20
2022-09-12T17:56:31.044Z,10.63
2022-09-12T17:59:02.168Z,12.73
2022-09-12T18:01:49.165Z,13.05
2022-09-12T18:04:18.333Z,17.52
2022-09-12T18:06:49.067Z,15.73
2022-09-12T18:09:19.897Z,16.63
2022-09-12T18:11:49.627Z,16.55
2022-09-12T18:14:19.801Z,18.08
2022-09-12T18:16:49.248Z,15.38
2022-09-12T18:19:18.466Z,19.65
2022-09-12T18:21:47.538Z,15.10
2022-09-12T18:24:15.684Z,19.70
2022-09-12T18:26:44.100Z,15.15
2022-09-12T18:29:13.378Z,17.20
2022-09-12T18:31:43.322Z,20.60
2022-09-12T18:34:13.928Z,20.60
2022-09-12T18:36:42.573Z,20.02
2022-09-12T18:39:11.798Z,21.40
2022-09-12T18:41:40.362Z,22.35
2022-09-12T18:44:09.258Z,17.73
2022-09-12T18:46:37.548Z,17.25
2022-09-12T18:49:08.068Z,16.95
2022-09-12T18:51:37.972Z,19.30
2022-09-12T18:54:08.870Z,14.98
2022-09-12T18:56:39.241Z,19.77
2022-09-12T18:59:08.336Z,14.48
2022-09-12T19:01:38.608Z,14.48
2022-09-12T19:04:10.298Z,15.93
2022-09-12T19:06:40.301Z,12.38
2022-09-12T19:09:09.867Z,12.27
2022-09-12T19:11:40.482Z,20.50
2022-09-12T19:14:09.189Z,15.05
2022-09-12T19:16:37.991Z,15.57
2022-09-12T19:19:07.571Z,16.40
2022-09-12T19:21:36.515Z,18.40
2022-09-12T19:24:06.873Z,18.15
2022-09-12T19:26:35.845Z,17.73
2022-09-12T19:29:04.209Z,14.30
2022-09-12T19:31:32.920Z,19.15
2022-09-12T19:34:02.112Z,20.58
2022-09-12T19:36:47.644Z,17.30
2022-09-12T19:39:17.387Z,29.33
2022-09-12T19:41:45.982Z,33.72
2022-09-12T19:44:14.832Z,32.22
2022-09-12T19:46:43.552Z,42.22
2022-09-12T19:49:13.127Z,53.17
2022-09-12T19:51:43.961Z,52.53
2022-09-12T19:54:12.462Z,49.13
2022-09-12T19:56:40.859Z,51.40
2022-09-12T19:59:09.807Z,57.30
2022-09-12T20:01:38.272Z,56.13
2022-09-12T20:04:07.048Z,53.60
2022-09-12T20:06:35.499Z,58.20
2022-09-12T20:09:05.263Z,53.38
2022-09-12T20:11:33.468Z,51.85
2022-09-12T20:14:01.768Z,51.30
2022-09-12T20:16:30.270Z,50.50
2022-09-12T20:19:00.038Z,46.78
2022-09-12T20:21:33.062Z,46.70
2022-09-12T20:24:02.824Z,44.95
2022-09-12T20:26:32.580Z,45.85
2022-09-12T20:29:01.401Z,42.58
2022-09-12T20:31:30.394Z,47.13
2022-09-12T20:33:59.361Z,42.58
2022-09-12T20:36:28.089Z,48.45
2022-09-12T20:38:58.272Z,40.97
2022-09-12T20:41:28.019Z,40.63
2022-09-12T20:43:58.209Z,39.75
2022-09-12T20:46:28.264Z,43.20
2022-09-12T20:48:56.722Z,36.95
2022-09-12T20:51:26.805Z,36.08
2022-09-12T20:53:55.455Z,38.53
2022-09-12T20:56:24.136Z,40.00
2022-09-12T20:58:52.261Z,37.85
2022-09-12T21:01:22.337Z,36.95
2022-09-12T21:03:50.556Z,36.58
2022-09-12T21:06:19.921Z,38.55
2022-09-12T21:08:49.440Z,42.65
2022-09-12T21:11:18.664Z,41.08
2022-09-12T21:13:46.944Z,41.60
2022-09-12T21:16:18.296Z,42.42
2022-09-12T21:18:48.643Z,39.83
2022-09-12T21:21:17.224Z,40.00
2022-09-12T21:23:45.442Z,40.00
2022-09-12T21:26:13.687Z,40.70
2022-09-12T21:28:41.834Z,37.35
2022-09-12T21:31:10.096Z,36.17
2022-09-12T21:33:38.497Z,37.55
2022-09-12T21:36:09.845Z,30.00
2022-09-12T21:38:38.341Z,34.78
2022-09-12T21:41:07.759Z,28.00
2022-09-12T21:43:35.994Z,29.23
2022-09-12T21:46:05.142Z,33.67
2022-09-12T21:48:33.908Z,39.78
2022-09-12T21:51:02.403Z,35.00
2022-09-12T21:53:32.295Z,44.13
2022-09-12T21:56:05.155Z,38.53
2022-09-12T21:58:33.330Z,32.05
2022-09-12T22:01:02.193Z,67.90
2022-09-12T22:03:31.290Z,36.00
2022-09-12T22:05:59.953Z,33.67
2022-09-12T22:08:29.223Z,37.10
2022-09-12T22:11:02.214Z,31.67
